Time;durP1;ratioP1;P1;durP2;ratioP2;P2;SDS_P1;SDS_P2;PMS_P1;PMS_P2;Temp;Humidity;BMP_temperature;BMP_pressure;BME280_temperature;BME280_humidity;BME280_pressure;Samples;Min_cycle;Max_cycle;Signal;HPM_P1;HPM_P2
2022/03/16 00:01:41;;;;;;;1999.90;999.90;;;14.30;72.60;;;;;;4974417;28;20035;-86
2022/03/16 00:04:07;;;;;;;1999.90;999.90;;;14.30;72.60;;;;;;4973492;28;20035;-86
2022/03/16 00:06:33;;;;;;;1999.90;999.90;;;14.30;72.60;;;;;;4973167;28;20515;-86
2022/03/16 00:08:59;;;;;;;1999.90;999.90;;;14.30;72.60;;;;;;4941478;28;20042;-87
2022/03/16 00:11:25;;;;;;;1999.90;999.90;;;14.30;72.60;;;;;;4941473;28;20050;-86
2022/03/16 00:13:51;;;;;;;1999.90;999.90;;;14.30;72.70;;;;;;4941777;28;20500;-85
2022/03/16 00:16:17;;;;;;;1999.90;999.90;;;14.30;72.70;;;;;;4951894;28;20047;-85
2022/03/16 00:18:43;;;;;;;1999.90;999.90;;;14.30;72.70;;;;;;4973141;28;20038;-85
2022/03/16 00:21:10;;;;;;;1999.90;999.90;;;14.20;72.70;;;;;;4957021;28;20496;-85
2022/03/16 00:23:36;;;;;;;1999.90;999.90;;;14.20;72.70;;;;;;4973134;28;20038;-85
2022/03/16 00:26:03;;;;;;;1999.90;999.90;;;14.20;72.70;;;;;;4974351;28;20046;-85
2022/03/16 00:28:29;;;;;;;1999.90;999.90;;;14.20;72.80;;;;;;4974562;28;20026;-85
2022/03/16 00:30:55;;;;;;;1999.90;999.90;;;14.20;72.80;;;;;;4972049;28;20050;-85
2022/03/16 00:33:21;;;;;;;1999.90;999.90;;;14.10;72.70;;;;;;4956888;28;20401;-85
2022/03/16 00:35:47;;;;;;;1999.90;999.90;;;14.10;73.60;;;;;;4972943;28;20043;-85
2022/03/16 00:38:16;;;;;;;1999.90;999.90;;;14.10;72.90;;;;;;4972814;28;20062;-86
2022/03/16 00:40:43;;;;;;;1999.90;999.90;;;14.10;72.90;;;;;;4941967;28;20046;-85
2022/03/16 00:43:09;;;;;;;1999.90;999.90;;;14.10;72.90;;;;;;4956537;28;20042;-84
2022/03/16 00:45:35;;;;;;;1999.90;999.90;;;14.10;72.90;;;;;;4972957;28;20412;-86
2022/03/16 00:48:01;;;;;;;1999.90;999.90;;;14.00;72.90;;;;;;4956558;28;20030;-85
2022/03/16 00:50:27;;;;;;;1999.90;999.90;;;14.00;73.00;;;;;;4956668;28;20049;-85
2022/03/16 00:52:53;;;;;;;1999.90;999.90;;;14.00;73.00;;;;;;4957165;28;20515;-85
2022/03/16 00:55:20;;;;;;;1999.90;999.90;;;14.00;73.00;;;;;;4973924;28;20031;-85
2022/03/16 00:57:46;;;;;;;1999.90;999.90;;;14.00;73.00;;;;;;4973456;28;20045;-82
2022/03/16 01:00:12;;;;;;;1999.90;999.90;;;14.00;73.00;;;;;;4940295;28;20058;-85
2022/03/16 01:02:38;;;;;;;1999.90;999.90;;;14.00;73.00;;;;;;4973848;28;20030;-85
2022/03/16 01:05:05;;;;;;;1999.90;999.90;;;13.90;72.90;;;;;;4972390;28;20026;-85
2022/03/16 01:07:31;;;;;;;1999.90;999.90;;;14.00;73.00;;;;;;4940018;28;20046;-85
2022/03/16 01:12:33;;;;;;;1999.90;999.90;;;13.90;73.00;;;;;;4820782;23;20129;-90
2022/03/16 01:15:00;;;;;;;1999.90;999.90;;;13.90;73.00;;;;;;4984667;28;20034;-88
2022/03/16 01:17:26;;;;;;;1999.90;999.90;;;13.90;73.00;;;;;;4991347;28;20045;-88
2022/03/16 01:19:52;;;;;;;1999.90;999.90;;;13.90;73.10;;;;;;4992336;28;20521;-89
2022/03/16 01:22:18;;;;;;;1999.90;999.90;;;13.90;73.10;;;;;;4992230;28;20022;-87
2022/03/16 01:24:44;;;;;;;1999.90;999.90;;;13.80;73.10;;;;;;4991579;28;20402;-89
2022/03/16 01:27:10;;;;;;;1999.90;999.90;;;13.80;73.10;;;;;;4991817;28;20061;-91
2022/03/16 01:29:36;;;;;;;1999.90;999.90;;;13.80;73.20;;;;;;4991344;28;20034;-90
2022/03/16 01:32:03;;;;;;;1999.90;999.90;;;13.80;73.30;;;;;;4990204;28;20045;-90
2022/03/16 01:34:29;;;;;;;1999.90;999.90;;;13.80;73.30;;;;;;4990713;28;20050;-91
2022/03/16 01:36:56;;;;;;;1999.90;999.90;;;13.70;73.30;;;;;;4991529;28;20033;-90
2022/03/16 01:39:22;;;;;;;1999.90;999.90;;;13.70;73.30;;;;;;4991020;28;20033;-90
2022/03/16 01:41:49;;;;;;;1999.90;999.90;;;13.70;73.30;;;;;;4991707;28;20030;-90
2022/03/16 01:44:15;;;;;;;1999.90;999.90;;;13.70;73.30;;;;;;4991060;28;20494;-90
2022/03/16 01:46:42;;;;;;;1999.90;999.90;;;13.70;73.30;;;;;;4990286;28;20038;-89
2022/03/16 01:49:08;;;;;;;1999.90;999.90;;;13.60;73.20;;;;;;4992578;28;20026;-90
2022/03/16 01:51:34;;;;;;;1999.90;999.90;;;13.60;73.20;;;;;;4981832;28;20026;-89
2022/03/16 01:54:00;;;;;;;1999.90;999.90;;;13.60;73.20;;;;;;4974299;28;20035;-90
2022/03/16 01:56:26;;;;;;;1999.90;999.90;;;13.60;73.30;;;;;;4991044;28;20034;-91
2022/03/16 01:58:52;;;;;;;1999.90;999.90;;;13.60;73.40;;;;;;4991599;28;20316;-89
2022/03/16 02:01:18;;;;;;;1999.90;999.90;;;13.60;73.40;;;;;;4991301;28;20045;-89
2022/03/16 02:03:44;;;;;;;1999.90;999.90;;;13.50;73.40;;;;;;4990982;28;20053;-89
2022/03/16 02:06:11;;;;;;;1999.90;999.90;;;13.50;73.40;;;;;;4990383;28;20030;-89
2022/03/16 02:08:37;;;;;;;1999.90;999.90;;;13.50;73.50;;;;;;4991101;28;20049;-89
2022/03/16 02:11:03;;;;;;;1999.90;999.90;;;13.50;73.50;;;;;;4990485;28;20034;-90
2022/03/16 02:13:29;;;;;;;1999.90;999.90;;;13.50;73.50;;;;;;4990114;28;20066;-90
2022/03/16 02:15:55;;;;;;;1999.90;999.90;;;13.40;73.50;;;;;;4991721;28;20035;-89
2022/03/16 02:18:21;;;;;;;1999.90;999.90;;;13.50;73.50;;;;;;4991604;28;20031;-90
2022/03/16 02:20:49;;;;;;;1999.90;999.90;;;13.40;73.40;;;;;;4994372;28;20041;-89
2022/03/16 02:23:15;;;;;;;1999.90;999.90;;;13.40;73.50;;;;;;4994875;28;20041;-90
2022/03/16 02:25:50;;;;;;;1999.90;999.90;;;13.40;73.50;;;;;;4993831;28;20023;-89
2022/03/16 02:28:16;;;;;;;1999.90;999.90;;;13.40;73.50;;;;;;4983990;28;20082;-89
2022/03/16 02:30:42;;;;;;;1999.90;999.90;;;13.40;73.60;;;;;;4993887;28;20030;-90
2022/03/16 02:33:09;;;;;;;1999.90;999.90;;;13.40;73.60;;;;;;4995030;28;20034;-89
2022/03/16 02:35:35;;;;;;;1999.90;999.90;;;13.40;73.60;;;;;;4995608;28;20053;-89
2022/03/16 02:38:01;;;;;;;1999.90;999.90;;;13.40;73.50;;;;;;4995061;28;20031;-90
2022/03/16 02:40:27;;;;;;;1999.90;999.90;;;13.40;73.50;;;;;;4994685;28;20085;-90
2022/03/16 02:42:53;;;;;;;1999.90;999.90;;;13.40;73.50;;;;;;4995596;28;20041;-89
2022/03/16 02:45:20;;;;;;;1999.90;999.90;;;13.40;73.50;;;;;;4994564;28;20031;-89
2022/03/16 02:47:47;;;;;;;1999.90;999.90;;;13.40;73.50;;;;;;4993919;28;20018;-89
2022/03/16 02:50:16;;;;;;;1999.90;999.90;;;13.40;73.50;;;;;;4978165;28;20491;-89
2022/03/16 02:52:42;;;;;;;1999.90;999.90;;;13.30;73.50;;;;;;4994742;28;20474;-90
2022/03/16 02:55:09;;;;;;;1999.90;999.90;;;13.30;73.60;;;;;;4993472;28;20061;-89
2022/03/16 02:57:35;;;;;;;1999.90;999.90;;;13.30;73.60;;;;;;4995039;28;20034;-90
2022/03/16 03:00:02;;;;;;;1999.90;999.90;;;13.30;73.60;;;;;;4993147;28;20038;-89
2022/03/16 03:02:29;;;;;;;1999.90;999.90;;;13.20;73.60;;;;;;4986726;28;20380;-90
2022/03/16 03:04:55;;;;;;;1999.90;999.90;;;13.20;73.60;;;;;;4987564;28;20042;-89
2022/03/16 03:07:21;;;;;;;1999.90;999.90;;;13.20;73.60;;;;;;4979899;28;20038;-91
2022/03/16 03:09:47;;;;;;;1999.90;999.90;;;13.20;73.60;;;;;;4984192;28;20134;-89
2022/03/16 03:12:13;;;;;;;1999.90;999.90;;;13.20;73.60;;;;;;4961715;28;20066;-90
2022/03/16 03:14:39;;;;;;;1999.90;999.90;;;13.20;73.60;;;;;;4993779;28;20054;-90
2022/03/16 03:17:05;;;;;;;1999.90;999.90;;;13.20;73.60;;;;;;4988202;28;20049;-91
2022/03/16 03:19:32;;;;;;;1999.90;999.90;;;13.20;73.60;;;;;;4991683;28;20478;-90
2022/03/16 03:21:58;;;;;;;1999.90;999.90;;;13.10;73.70;;;;;;4992371;28;20030;-90
2022/03/16 03:24:24;;;;;;;1999.90;999.90;;;13.10;73.70;;;;;;4989124;28;20038;-90
2022/03/16 03:26:50;;;;;;;1999.90;999.90;;;13.10;73.70;;;;;;4959284;28;20419;-89
2022/03/16 03:29:16;;;;;;;1999.90;999.90;;;13.10;73.70;;;;;;4991982;28;20043;-90
2022/03/16 03:31:42;;;;;;;1999.90;999.90;;;13.10;73.70;;;;;;4988864;28;20278;-90
2022/03/16 03:34:08;;;;;;;1999.90;999.90;;;13.10;73.70;;;;;;4993030;28;20038;-90
2022/03/16 03:36:35;;;;;;;1999.90;999.90;;;13.10;73.70;;;;;;4992957;28;20038;-90
2022/03/16 03:39:01;;;;;;;1999.90;999.90;;;13.10;73.70;;;;;;4993581;28;20035;-91
2022/03/16 03:41:27;;;;;;;1999.90;999.90;;;13.10;73.70;;;;;;4993522;28;20034;-90
2022/03/16 03:43:53;;;;;;;1999.90;999.90;;;13.10;73.80;;;;;;4983761;28;20413;-90
2022/03/16 03:46:19;;;;;;;1999.90;999.90;;;13.10;73.80;;;;;;4976083;28;20046;-89
2022/03/16 03:48:45;;;;;;;1999.90;999.90;;;13.00;73.80;;;;;;4993162;28;20490;-90
2022/03/16 03:51:12;;;;;;;1999.90;999.90;;;13.00;73.80;;;;;;4993761;28;20030;-89
2022/03/16 03:53:38;;;;;;;1999.90;999.90;;;13.00;73.90;;;;;;4993993;28;20405;-90
2022/03/16 03:56:04;;;;;;;1999.90;999.90;;;13.00;73.90;;;;;;4994111;28;20037;-90
2022/03/16 03:58:30;;;;;;;1999.90;999.90;;;13.00;73.90;;;;;;4992452;28;20042;-90
2022/03/16 04:00:57;;;;;;;1999.90;999.90;;;13.00;73.90;;;;;;4992719;28;20395;-89
2022/03/16 04:03:24;;;;;;;1999.90;999.90;;;13.00;73.80;;;;;;4993380;28;20046;-90
2022/03/16 04:05:50;;;;;;;1999.90;999.90;;;13.00;73.80;;;;;;4992385;28;20038;-90
2022/03/16 04:08:16;;;;;;;1999.90;999.90;;;13.00;73.80;;;;;;4993465;28;20046;-89
2022/03/16 04:10:42;;;;;;;1999.90;999.90;;;13.00;73.80;;;;;;4993490;28;20038;-89
2022/03/16 04:13:08;;;;;;;1999.90;999.90;;;13.00;73.80;;;;;;4993703;28;20407;-90
2022/03/16 04:15:35;;;;;;;1999.90;999.90;;;13.00;73.80;;;;;;4993037;28;20383;-89
2022/03/16 04:18:01;;;;;;;1999.90;999.90;;;13.00;73.80;;;;;;4992461;28;20042;-89
2022/03/16 04:20:27;;;;;;;1999.90;999.90;;;13.00;73.80;;;;;;4991428;28;20045;-89
2022/03/16 04:22:53;;;;;;;1999.90;999.90;;;12.90;73.80;;;;;;4993435;28;20030;-88
2022/03/16 04:25:19;;;;;;;1999.90;999.90;;;12.90;73.80;;;;;;4976325;28;20042;-89
2022/03/16 04:27:45;;;;;;;1999.90;999.90;;;12.90;73.80;;;;;;4993581;28;20038;-89
2022/03/16 04:30:12;;;;;;;1999.90;999.90;;;12.90;73.80;;;;;;4992037;28;20055;-89
2022/03/16 04:32:38;;;;;;;1999.90;999.90;;;12.90;73.80;;;;;;4992190;28;20394;-88
2022/03/16 04:35:04;;;;;;;1999.90;999.90;;;12.90;73.90;;;;;;4975085;28;20446;-89
2022/03/16 04:37:30;;;;;;;1999.90;999.90;;;12.90;73.90;;;;;;4991527;28;20363;-89
2022/03/16 04:39:56;;;;;;;1999.90;999.90;;;12.80;73.80;;;;;;4991386;28;20471;-88
2022/03/16 04:42:22;;;;;;;1999.90;999.90;;;12.80;73.90;;;;;;4993133;28;20041;-89
2022/03/16 04:44:49;;;;;;;1999.90;999.90;;;12.80;74.00;;;;;;4992897;28;20030;-88
2022/03/16 04:47:15;;;;;;;1999.90;999.90;;;12.80;74.00;;;;;;4991687;28;20061;-89
2022/03/16 04:49:41;;;;;;;1999.90;999.90;;;12.80;74.00;;;;;;4991524;28;20045;-89
2022/03/16 04:52:07;;;;;;;1999.90;999.90;;;12.80;74.00;;;;;;4992655;28;20030;-88
2022/03/16 04:54:33;;;;;;;1999.90;999.90;;;12.80;74.10;;;;;;4975098;28;20045;-88
2022/03/16 04:56:59;;;;;;;1999.90;999.90;;;12.70;74.00;;;;;;4991852;28;20041;-88
2022/03/16 04:59:25;;;;;;;1999.90;999.90;;;12.80;74.10;;;;;;4991915;28;20390;-88
2022/03/16 05:01:51;;;;;;;1999.90;999.90;;;12.80;74.00;;;;;;4990849;28;20049;-88
2022/03/16 05:04:17;;;;;;;1999.90;999.90;;;12.80;74.00;;;;;;4992283;28;20527;-88
2022/03/16 05:06:44;;;;;;;1999.90;999.90;;;12.80;74.00;;;;;;4991751;28;20030;-87
2022/03/16 05:09:10;;;;;;;1999.90;999.90;;;12.80;73.90;;;;;;4992468;28;20038;-87
2022/03/16 05:11:36;;;;;;;1999.90;999.90;;;12.80;74.00;;;;;;4991113;28;20475;-90
2022/03/16 05:14:02;;;;;;;1999.90;999.90;;;12.70;74.00;;;;;;4992544;28;20058;-91
2022/03/16 05:16:28;;;;;;;1999.90;999.90;;;12.70;74.10;;;;;;4991924;28;20042;-91
2022/03/16 05:18:54;;;;;;;1999.90;999.90;;;12.70;74.20;;;;;;4992482;28;20479;-89
2022/03/16 05:21:20;;;;;;;1999.90;999.90;;;12.70;74.20;;;;;;4992089;28;20034;-89
2022/03/16 05:23:47;;;;;;;1999.90;999.90;;;12.70;74.20;;;;;;4992160;28;20031;-90
2022/03/16 05:26:13;;;;;;;1999.90;999.90;;;12.70;74.20;;;;;;4991267;28;20038;-90
2022/03/16 05:28:39;;;;;;;1999.90;999.90;;;12.60;74.20;;;;;;4990182;28;20045;-88
2022/03/16 05:31:05;;;;;;;1999.90;999.90;;;12.70;74.40;;;;;;4992955;28;20057;-88
2022/03/16 05:33:31;;;;;;;1999.90;999.90;;;12.60;74.40;;;;;;4989281;28;20486;-87
2022/03/16 05:35:57;;;;;;;1999.90;999.90;;;12.60;74.40;;;;;;4989600;28;20061;-87
2022/03/16 05:38:23;;;;;;;1999.90;999.90;;;12.70;74.40;;;;;;4992498;28;20486;-88
2022/03/16 05:40:49;;;;;;;1999.90;999.90;;;12.70;74.20;;;;;;4991921;28;20038;-87
2022/03/16 05:43:15;;;;;;;1999.90;999.90;;;12.70;74.20;;;;;;4991867;28;20370;-87
2022/03/16 05:45:42;;;;;;;1999.90;999.90;;;12.70;74.20;;;;;;4990088;28;20035;-87
2022/03/16 05:48:08;;;;;;;1999.90;999.90;;;12.70;74.20;;;;;;4991390;28;20471;-86
2022/03/16 05:50:34;;;;;;;1999.90;999.90;;;12.80;74.10;;;;;;4991312;28;20034;-86
2022/03/16 05:53:01;;;;;;;1999.90;999.90;;;12.80;74.10;;;;;;4992054;28;20042;-87
2022/03/16 05:55:27;;;;;;;1999.90;999.90;;;12.80;74.10;;;;;;4995774;28;20399;-87
2022/03/16 05:57:53;;;;;;;1999.90;999.90;;;12.80;74.10;;;;;;4981473;28;20058;-87
2022/03/16 06:00:20;;;;;;;1999.90;999.90;;;12.80;74.10;;;;;;4997791;28;20049;-87
2022/03/16 06:02:47;;;;;;;1999.90;999.90;;;12.80;74.10;;;;;;4996994;28;20494;-87
2022/03/16 06:05:13;;;;;;;1999.90;999.90;;;12.80;74.00;;;;;;4998610;28;20030;-88
2022/03/16 06:07:40;;;;;;;1999.90;999.90;;;12.80;74.10;;;;;;4996969;28;20037;-88
2022/03/16 06:10:07;;;;;;;1999.90;999.90;;;12.70;74.10;;;;;;4998889;28;20034;-86
2022/03/16 06:12:34;;;;;;;1999.90;999.90;;;12.70;74.10;;;;;;4996985;28;20034;-87
2022/03/16 06:15:00;;;;;;;1999.90;999.90;;;12.70;74.10;;;;;;4997028;28;20049;-87
2022/03/16 06:17:26;;;;;;;1999.90;999.90;;;12.70;74.10;;;;;;4996577;28;20501;-86
2022/03/16 06:19:52;;;;;;;1999.90;999.90;;;12.80;74.10;;;;;;4996829;28;20030;-86
2022/03/16 06:22:18;;;;;;;1999.90;999.90;;;12.70;74.10;;;;;;4998108;28;20077;-87
2022/03/16 06:24:44;;;;;;;1999.90;999.90;;;12.80;74.10;;;;;;4998580;28;20030;-87
2022/03/16 06:27:10;;;;;;;1999.90;999.90;;;12.70;74.10;;;;;;4997988;28;20037;-87
2022/03/16 06:29:36;;;;;;;1999.90;999.90;;;12.70;74.10;;;;;;4997350;28;20033;-87
2022/03/16 06:32:03;;;;;;;1999.90;999.90;;;12.70;74.30;;;;;;4995881;28;20036;-87
2022/03/16 06:34:29;;;;;;;1999.90;999.90;;;12.70;74.20;;;;;;4997873;28;20053;-87
2022/03/16 06:36:55;;;;;;;1999.90;999.90;;;12.70;74.20;;;;;;4998592;28;20022;-86
2022/03/16 06:39:21;;;;;;;1999.90;999.90;;;12.70;74.20;;;;;;4997876;28;20475;-87
2022/03/16 06:41:47;;;;;;;1999.90;999.90;;;12.70;74.20;;;;;;4996712;28;20498;-87
2022/03/16 06:44:13;;;;;;;1999.90;999.90;;;12.70;74.20;;;;;;4998254;28;20044;-86
2022/03/16 06:46:39;;;;;;;1999.90;999.90;;;12.60;74.20;;;;;;4995904;28;20034;-87
2022/03/16 06:49:05;;;;;;;1999.90;999.90;;;12.60;74.30;;;;;;4997524;28;20505;-87
2022/03/16 06:51:31;;;;;;;1999.90;999.90;;;12.60;74.20;;;;;;4997465;28;20023;-87
2022/03/16 06:53:58;;;;;;;1999.90;999.90;;;12.60;74.30;;;;;;4996425;28;20041;-86
2022/03/16 06:56:24;;;;;;;1999.90;999.90;;;12.60;74.30;;;;;;4998490;28;20030;-88
2022/03/16 06:58:51;;;;;;;1999.90;999.90;;;12.60;74.30;;;;;;4997789;28;20038;-87
2022/03/16 07:01:17;;;;;;;1999.90;999.90;;;12.60;74.40;;;;;;4995792;28;20414;-86
2022/03/16 07:03:44;;;;;;;1999.90;999.90;;;12.50;74.40;;;;;;4996555;28;20030;-89
2022/03/16 07:06:10;;;;;;;1999.90;999.90;;;12.50;75.20;;;;;;4993844;28;20042;-87
2022/03/16 07:08:36;;;;;;;1999.90;999.90;;;12.50;74.50;;;;;;4995021;28;20517;-86
2022/03/16 07:11:02;;;;;;;1999.90;999.90;;;12.50;74.40;;;;;;4991938;28;20061;-86
2022/03/16 07:13:29;;;;;;;1999.90;999.90;;;12.50;74.40;;;;;;4994169;28;20916;-86
2022/03/16 07:15:55;;;;;;;1999.90;999.90;;;12.50;74.40;;;;;;4992979;28;20051;-86
2022/03/16 07:18:23;;;;;;;1999.90;999.90;;;12.50;74.40;;;;;;4993885;28;20027;-86
2022/03/16 07:20:49;;;;;;;1505.47;755.22;;;12.60;74.50;;;;;;4985862;28;20391;-86
2022/03/16 07:23:17;;;;;;;1999.90;999.90;;;12.60;74.40;;;;;;4974778;28;20030;-84
2022/03/16 07:25:46;;;;;;;1505.60;755.33;;;12.60;74.40;;;;;;4993976;28;20197;-83
2022/03/16 07:28:12;;;;;;;1999.90;999.90;;;12.60;74.40;;;;;;4992965;28;20494;-83
2022/03/16 07:30:38;;;;;;;1999.90;999.90;;;12.60;74.40;;;;;;4975396;28;20395;-84
2022/03/16 07:33:05;;;;;;;1505.35;755.10;;;12.60;74.40;;;;;;4992607;28;20034;-84
2022/03/16 07:35:32;;;;;;;1505.40;755.15;;;12.60;74.50;;;;;;4994761;28;20049;-82
2022/03/16 07:37:58;;;;;;;1999.90;999.90;;;12.60;74.40;;;;;;4974652;28;20045;-86
2022/03/16 07:40:25;;;;;;;1999.90;999.90;;;12.60;74.40;;;;;;4990739;28;20399;-85
2022/03/16 07:42:51;;;;;;;1999.90;999.90;;;12.60;74.40;;;;;;4994417;28;20430;-84
2022/03/16 07:45:19;;;;;;;1999.90;999.90;;;12.60;74.40;;;;;;4992919;28;20178;-84
2022/03/16 07:47:46;;;;;;;1999.90;999.90;;;12.70;74.40;;;;;;4993984;28;20034;-85
2022/03/16 07:50:12;;;;;;;1999.90;999.90;;;12.70;74.40;;;;;;4991522;28;20038;-84
2022/03/16 07:52:38;;;;;;;1999.90;999.90;;;12.70;74.40;;;;;;4992222;28;20046;-83
2022/03/16 07:55:06;;;;;;;1999.90;999.90;;;12.70;74.60;;;;;;4993834;28;20059;-85
2022/03/16 07:57:32;;;;;;;1999.90;999.90;;;12.70;74.30;;;;;;4987118;28;20399;-84
2022/03/16 07:59:58;;;;;;;1999.90;999.90;;;12.70;74.20;;;;;;4992004;28;20033;-84
2022/03/16 08:02:28;;;;;;;1999.90;999.90;;;12.70;74.30;;;;;;4991024;28;20034;-84
2022/03/16 08:04:57;;;;;;;1999.90;999.90;;;12.70;74.30;;;;;;4993643;28;20364;-84
2022/03/16 08:07:26;;;;;;;1999.90;999.90;;;12.80;74.30;;;;;;4991593;28;20551;-85
2022/03/16 08:09:52;;;;;;;1999.90;999.90;;;12.80;74.30;;;;;;4992259;28;20035;-84
2022/03/16 08:12:18;;;;;;;1999.90;999.90;;;12.80;74.30;;;;;;4991457;28;20034;-84
2022/03/16 08:14:44;;;;;;;1999.90;999.90;;;12.80;74.30;;;;;;4984085;28;20043;-84
2022/03/16 08:17:10;;;;;;;1999.90;999.90;;;12.80;74.20;;;;;;4991610;28;20034;-81
2022/03/16 08:19:36;;;;;;;1999.90;999.90;;;12.80;74.30;;;;;;4992068;28;20395;-83
2022/03/16 08:22:03;;;;;;;1999.90;999.90;;;12.80;74.20;;;;;;4993319;28;20057;-84
2022/03/16 08:24:29;;;;;;;1999.90;999.90;;;12.80;74.20;;;;;;4991636;28;20044;-84
2022/03/16 08:26:55;;;;;;;1999.90;999.90;;;12.80;74.20;;;;;;4992824;28;20038;-85
2022/03/16 08:29:21;;;;;;;1999.90;999.90;;;12.80;74.20;;;;;;4993364;28;20030;-84
2022/03/16 08:31:47;;;;;;;1999.90;999.90;;;12.90;74.20;;;;;;4992119;28;20049;-85
2022/03/16 08:34:13;;;;;;;1999.90;999.90;;;12.90;74.30;;;;;;4993005;28;20038;-83
2022/03/16 08:36:39;;;;;;;1999.90;999.90;;;12.90;74.20;;;;;;4992028;28;20042;-83
2022/03/16 08:39:06;;;;;;;1999.90;999.90;;;12.90;74.30;;;;;;4992793;28;20409;-86
2022/03/16 08:41:33;;;;;;;1999.90;999.90;;;12.90;74.20;;;;;;4993124;28;20038;-84
2022/03/16 08:43:59;;;;;;;1999.90;999.90;;;12.90;74.80;;;;;;4992042;28;20041;-84
2022/03/16 08:46:26;;;;;;;1999.90;999.90;;;13.00;74.30;;;;;;4992119;28;20414;-84
2022/03/16 08:48:52;;;;;;;1999.90;999.90;;;13.00;74.20;;;;;;4991901;28;20042;-86
2022/03/16 08:51:18;;;;;;;1999.90;999.90;;;13.00;74.20;;;;;;4992532;28;20038;-84
2022/03/16 08:53:44;;;;;;;1999.90;999.90;;;13.10;74.20;;;;;;4995139;28;20040;-85
2022/03/16 08:56:11;;;;;;;1999.90;999.90;;;13.10;74.20;;;;;;4990783;28;20463;-85
2022/03/16 08:58:37;;;;;;;1999.90;999.90;;;13.10;74.00;;;;;;4990711;28;20474;-84
2022/03/16 09:01:04;;;;;;;1999.90;999.90;;;13.20;74.10;;;;;;4992529;28;20104;-84
2022/03/16 09:03:31;;;;;;;1999.90;999.90;;;13.20;74.10;;;;;;4992236;28;20029;-82
2022/03/16 09:05:57;;;;;;;1999.90;999.90;;;13.20;74.10;;;;;;4991631;28;20046;-83
2022/03/16 09:08:23;;;;;;;1999.90;999.90;;;13.20;74.00;;;;;;4989643;28;20057;-84
2022/03/16 09:10:50;;;;;;;1999.90;999.90;;;13.30;74.10;;;;;;4991946;28;20046;-85
2022/03/16 09:13:17;;;;;;;1999.90;999.90;;;13.30;74.00;;;;;;4992356;28;20046;-85
2022/03/16 09:15:44;;;;;;;1999.90;999.90;;;13.40;73.90;;;;;;4991569;28;20046;-84
2022/03/16 09:18:10;;;;;;;1999.90;999.90;;;13.40;73.90;;;;;;4990608;28;20034;-84
2022/03/16 09:20:39;;;;;;;1999.90;999.90;;;13.50;73.90;;;;;;4992484;28;20031;-83
2022/03/16 09:23:06;;;;;;;1999.90;999.90;;;13.50;73.90;;;;;;4980839;28;20577;-85
2022/03/16 09:25:32;;;;;;;1999.90;999.90;;;13.50;73.80;;;;;;4988554;28;20097;-84
2022/03/16 09:27:58;;;;;;;1999.90;999.90;;;13.60;73.90;;;;;;4989962;28;20382;-83
2022/03/16 09:30:24;;;;;;;1999.90;999.90;;;13.60;73.80;;;;;;4990526;28;20034;-84
2022/03/16 09:32:57;;;;;;;1999.90;999.90;;;13.70;73.70;;;;;;4974396;28;20414;-84
2022/03/16 09:35:23;;;;;;;1999.90;999.90;;;13.70;73.70;;;;;;4983046;28;20045;-84
2022/03/16 09:37:50;;;;;;;1999.90;999.90;;;13.80;73.60;;;;;;4990698;28;20034;-84
2022/03/16 09:40:17;;;;;;;1999.90;999.90;;;13.80;73.50;;;;;;4987648;28;20050;-84
2022/03/16 09:42:43;;;;;;;1999.90;999.90;;;13.90;73.40;;;;;;4988731;28;20039;-85
2022/03/16 09:45:11;;;;;;;1999.90;999.90;;;13.90;73.40;;;;;;4972408;28;20114;-85
2022/03/16 09:47:37;;;;;;;1999.90;999.90;;;14.00;73.40;;;;;;4991219;28;20023;-85
2022/03/16 09:50:03;;;;;;;1999.90;999.90;;;14.00;73.40;;;;;;4990418;28;20030;-83
2022/03/16 09:52:29;;;;;;;1999.90;999.90;;;14.10;73.40;;;;;;4991631;28;20045;-83
2022/03/16 09:54:55;;;;;;;1999.90;999.90;;;14.10;73.40;;;;;;4990883;28;20038;-83
2022/03/16 09:57:21;;;;;;;1999.90;999.90;;;14.10;73.30;;;;;;4991707;28;20038;-83
2022/03/16 09:59:48;;;;;;;1999.90;999.90;;;14.10;73.30;;;;;;4988019;28;20046;-86
2022/03/16 10:02:17;;;;;;;1999.90;999.90;;;14.20;73.30;;;;;;4991282;28;20042;-88
2022/03/16 10:04:46;;;;;;;1999.90;999.90;;;14.20;73.30;;;;;;4992730;28;20034;-89
2022/03/16 10:07:12;;;;;;;1999.90;999.90;;;14.30;73.20;;;;;;4995287;28;20034;-89
2022/03/16 10:15:18;;;;;;;1999.90;999.90;;;14.50;73.10;;;;;;5000296;28;20487;-90
2022/03/16 10:18:00;;;;;;;1999.90;999.90;;;14.60;73.10;;;;;;4999615;28;20046;-90
2022/03/16 10:20:28;;;;;;;1999.90;999.90;;;14.70;72.90;;;;;;4988758;28;20030;-90
2022/03/16 10:23:01;;;;;;;1999.90;999.90;;;14.70;72.70;;;;;;4980477;28;20031;-90
2022/03/16 10:25:29;;;;;;;1999.90;999.90;;;14.80;72.60;;;;;;4995324;28;20038;-90
2022/03/16 10:28:31;;;;;;;1999.90;999.90;;;14.80;72.60;;;;;;4997488;28;20045;-89
2022/03/16 10:31:06;;;;;;;1999.90;999.90;;;14.90;72.50;;;;;;4995450;28;20038;-90
2022/03/16 10:33:33;;;;;;;1999.90;999.90;;;14.90;72.40;;;;;;4965672;28;20034;-89
2022/03/16 10:36:07;;;;;;;1999.90;999.90;;;15.00;72.50;;;;;;4996418;28;20046;-89
2022/03/16 10:38:43;;;;;;;1999.90;999.90;;;15.00;72.40;;;;;;4971703;28;20038;-90
2022/03/16 10:47:19;;;;;;;1999.90;999.90;;;15.20;72.00;;;;;;4977406;28;20050;-89
2022/03/16 10:49:45;;;;;;;1999.90;999.90;;;15.30;71.90;;;;;;4995964;28;20487;-89
2022/03/16 10:52:19;;;;;;;1999.90;999.90;;;15.30;71.90;;;;;;4997250;28;20055;-89
2022/03/16 10:54:47;;;;;;;1999.90;999.90;;;15.40;71.90;;;;;;4996434;28;20038;-89
2022/03/16 10:57:13;;;;;;;1999.90;999.90;;;15.40;71.80;;;;;;4967977;28;20074;-89
2022/03/16 10:59:48;;;;;;;1999.90;999.90;;;15.50;71.70;;;;;;4995243;28;20050;-89
2022/03/16 11:02:15;;;;;;;1999.90;999.90;;;15.60;71.70;;;;;;4995149;28;20042;-89
2022/03/16 11:04:45;;;;;;;1999.90;999.90;;;15.70;71.60;;;;;;4958103;28;20034;-89
2022/03/16 11:07:11;;;;;;;1999.90;999.90;;;15.70;71.40;;;;;;4964414;28;20038;-89
2022/03/16 11:09:38;;;;;;;1999.90;999.90;;;15.80;71.40;;;;;;4996656;28;20046;-89
2022/03/16 11:14:50;;;;;;;1999.90;999.90;;;15.90;71.30;;;;;;4999210;28;20042;-89
2022/03/16 11:17:17;;;;;;;1999.90;999.90;;;15.90;71.10;;;;;;4994986;28;20061;-89
2022/03/16 11:19:48;;;;;;;1999.90;999.90;;;16.00;71.10;;;;;;4996293;28;20026;-89
2022/03/16 11:22:15;;;;;;;1999.90;999.90;;;16.10;71.10;;;;;;4995071;28;20049;-90
2022/03/16 11:24:50;;;;;;;1999.90;999.90;;;16.10;71.00;;;;;;4996665;28;20022;-89
2022/03/16 11:27:34;;;;;;;1999.90;999.90;;;16.20;70.90;;;;;;4979313;28;20029;-90
2022/03/16 11:30:27;;;;;;;1999.90;999.90;;;16.20;70.80;;;;;;4994693;28;20118;-89
2022/03/16 11:33:01;;;;;;;1999.90;999.90;;;16.30;70.80;;;;;;4994120;28;20034;-90
2022/03/16 11:35:31;;;;;;;1999.90;999.90;;;16.40;70.80;;;;;;4986071;28;20041;-89
2022/03/16 11:38:12;;;;;;;1999.90;999.90;;;16.40;70.70;;;;;;4978320;28;20038;-92
2022/03/16 11:41:07;;;;;;;;;;;;;;;;;;;;;
2022/03/16 11:43:39;;;;;;;1999.90;999.90;;;16.40;70.60;;;;;;4993919;28;20034;-86
2022/03/16 11:46:10;;;;;;;1999.90;999.90;;;16.40;70.60;;;;;;4966508;28;20042;-88
2022/03/16 11:48:37;;;;;;;;;;;16.40;70.60;;;;;;4983016;28;20027;-86
2022/03/16 11:51:07;;;;;;;1999.90;999.90;;;16.50;70.60;;;;;;4991494;28;19917;-87
2022/03/16 11:56:31;;;;;;;1999.90;999.90;;;16.60;70.40;;;;;;4984557;28;20034;-82
2022/03/16 11:59:03;;;;;;;1999.90;999.90;;;16.70;70.30;;;;;;4992523;28;20513;-81
2022/03/16 12:01:31;;;;;;;1999.90;999.90;;;16.70;70.30;;;;;;4992409;28;20041;-81
2022/03/16 12:04:14;;;;;;;1999.90;999.90;;;16.70;70.30;;;;;;4991612;28;20034;-82
2022/03/16 12:07:09;;;;;;;1999.90;999.90;;;16.70;70.20;;;;;;4993196;28;20034;-81
2022/03/16 12:09:47;;;;;;;1999.90;999.90;;;16.70;70.10;;;;;;4991127;28;20037;-85
2022/03/16 12:15:17;;;;;;;1999.90;999.90;;;16.80;70.20;;;;;;4990311;28;20034;-77
2022/03/16 12:17:52;;;;;;;1999.90;999.90;;;16.80;70.10;;;;;;4989531;28;20049;-85
2022/03/16 12:20:44;;;;;;;1999.90;999.90;;;16.90;70.10;;;;;;4976642;28;20042;-78
2022/03/16 12:23:19;;;;;;;1999.90;999.90;;;16.80;70.00;;;;;;4992401;28;20138;-88
2022/03/16 12:25:48;;;;;;;1999.90;999.90;;;16.90;70.10;;;;;;4992769;28;20842;-88